createdAt,value
2022-09-21T00:09:05.433Z,75343.75
2022-09-21T00:19:09.124Z,75329.59
2022-09-21T00:29:15.284Z,75323.50
2022-09-21T00:39:25.732Z,75319.47
2022-09-21T00:49:31.546Z,75323.50
2022-09-21T00:59:38.555Z,75319.47
2022-09-21T01:09:43.582Z,75313.41
2022-09-21T01:20:08.173Z,75313.41
2022-09-21T01:30:16.551Z,75309.34
2022-09-21T01:40:42.432Z,75307.31
2022-09-21T01:50:52.334Z,75309.34
2022-09-21T02:00:58.532Z,75305.31
2022-09-21T02:11:02.446Z,75291.13
2022-09-21T02:21:09.335Z,75281.03
2022-09-21T02:31:28.448Z,75305.31
2022-09-21T02:41:38.386Z,75301.25
2022-09-21T02:51:47.609Z,75329.59
2022-09-21T03:01:52.959Z,75325.53
2022-09-21T03:11:59.294Z,75331.59
2022-09-21T03:22:02.994Z,75333.63
2022-09-21T03:32:05.328Z,75329.59
2022-09-21T03:42:07.543Z,75331.59
2022-09-21T03:52:14.925Z,75337.69
2022-09-21T04:02:17.261Z,75333.63
2022-09-21T04:12:22.551Z,75329.59
2022-09-21T04:22:25.178Z,75329.59
2022-09-21T04:32:29.588Z,75329.59
2022-09-21T04:42:38.624Z,75331.59
2022-09-21T04:52:40.834Z,75317.44
2022-09-21T05:02:48.726Z,75321.50
2022-09-21T05:12:53.167Z,75321.50
2022-09-21T05:23:01.885Z,75325.53
2022-09-21T05:33:04.695Z,75319.47
2022-09-21T05:43:09.826Z,75309.34
2022-09-21T05:53:32.715Z,75313.41
2022-09-21T06:03:40.452Z,75309.34
2022-09-21T06:13:43.109Z,75305.31
2022-09-21T06:23:50.552Z,75293.16
2022-09-21T06:34:00.962Z,75309.34
2022-09-21T06:44:04.048Z,75272.94
2022-09-21T06:54:10.231Z,75256.75
2022-09-21T07:04:14.780Z,75252.69
2022-09-21T07:14:24.637Z,75236.50
2022-09-21T07:24:29.318Z,75220.31
2022-09-21T07:34:35.426Z,75212.22
2022-09-21T07:44:39.951Z,75183.88
2022-09-21T07:54:42.884Z,75117.13
2022-09-21T08:04:45.041Z,75017.97
2022-09-21T08:14:48.321Z,74947.16
2022-09-21T08:24:52.817Z,74949.16
2022-09-21T08:34:57.201Z,74928.94
2022-09-21T08:45:07.677Z,75017.97
2022-09-21T08:55:20.498Z,75022.00
2022-09-21T09:05:52.931Z,74991.66
2022-09-21T09:15:58.084Z,75026.06
2022-09-21T09:26:36.780Z,75042.25
2022-09-21T09:36:58.208Z,75054.38
2022-09-21T09:47:22.628Z,75022.00
2022-09-21T09:57:31.835Z,74947.16
2022-09-21T10:07:39.845Z,74900.59
2022-09-21T10:17:46.347Z,74848.00
2022-09-21T10:27:52.054Z,74884.41
2022-09-21T10:38:22.486Z,74924.88
2022-09-21T10:48:26.667Z,74920.84
2022-09-21T10:58:32.529Z,74965.34
2022-09-21T11:08:39.904Z,74912.75
2022-09-21T11:19:10.565Z,74884.41
2022-09-21T11:29:23.537Z,74813.59
2022-09-21T11:39:32.146Z,74801.47
2022-09-21T11:50:07.563Z,74841.94
2022-09-21T12:00:19.114Z,74795.38
2022-09-21T12:10:59.175Z,74771.09
2022-09-21T12:21:38.197Z,74756.94
2022-09-21T12:31:47.749Z,74728.63
2022-09-21T12:41:59.737Z,74720.53
2022-09-21T12:52:07.071Z,74694.22
2022-09-21T13:02:20.485Z,74746.84
2022-09-21T13:12:30.793Z,74724.56
2022-09-21T13:22:40.080Z,74823.72
2022-09-21T13:32:54.977Z,74870.25
2022-09-21T13:43:15.375Z,74872.28
2022-09-21T13:53:40.604Z,74860.13
2022-09-21T14:03:51.383Z,74821.69
2022-09-21T14:14:14.774Z,74827.75
2022-09-21T14:24:21.908Z,74803.47
2022-09-21T14:34:32.636Z,74783.25
2022-09-21T14:44:42.740Z,74793.38
2022-09-21T14:55:09.293Z,74785.28
2022-09-21T15:05:38.074Z,74813.59
2022-09-21T15:16:01.507Z,74813.59
2022-09-21T15:26:14.112Z,74829.78
2022-09-21T15:36:25.730Z,74854.06
2022-09-21T15:46:36.955Z,74884.41
2022-09-21T15:56:43.789Z,74941.06
2022-09-21T16:07:08.314Z,75022.00
2022-09-21T16:17:22.472Z,75060.47
2022-09-21T16:27:39.099Z,75098.91
2022-09-21T16:37:42.360Z,75102.94
2022-09-21T16:47:49.384Z,75127.22
2022-09-21T16:57:54.256Z,75135.31
2022-09-21T17:07:58.385Z,75167.69
2022-09-21T17:18:02.905Z,75187.94
2022-09-21T17:28:29.491Z,75222.34
2022-09-21T17:38:31.498Z,75250.66
2022-09-21T17:48:38.742Z,75270.91
2022-09-21T17:58:58.451Z,75281.03
2022-09-21T18:09:13.322Z,75297.22
2022-09-21T18:19:36.894Z,75309.34
2022-09-21T18:29:43.302Z,75317.44
2022-09-21T18:39:53.600Z,75317.44
2022-09-21T18:50:08.007Z,75361.97
2022-09-21T19:00:15.591Z,75374.09
2022-09-21T19:10:27.032Z,75378.16
2022-09-21T19:20:34.520Z,75380.19
2022-09-21T19:30:42.151Z,75370.06
2022-09-21T19:40:53.109Z,75372.09
2022-09-21T19:50:59.020Z,75382.19
2022-09-21T20:01:04.237Z,75378.16
2022-09-21T20:11:12.913Z,75374.09
2022-09-21T20:21:23.513Z,75390.28
2022-09-21T20:31:30.343Z,75402.44
2022-09-21T20:41:32.856Z,75412.56
2022-09-21T20:51:37.841Z,75418.63
2022-09-21T21:01:42.102Z,75426.72
2022-09-21T21:11:44.438Z,75446.97
2022-09-21T21:21:46.560Z,75461.13
2022-09-21T21:31:53.535Z,75479.34
2022-09-21T21:41:56.133Z,75487.44
2022-09-21T21:52:03.894Z,75501.59
2022-09-21T22:02:06.325Z,75497.56
2022-09-21T22:12:13.153Z,75497.56
2022-09-21T22:22:15.378Z,75519.81
2022-09-21T22:43:11.501Z,75536.00
2022-09-21T23:04:04.298Z,75556.25
2022-09-21T23:14:06.526Z,75570.41
2022-09-21T23:24:08.883Z,75572.44
2022-09-21T23:34:14.969Z,75588.63
2022-09-21T23:44:19.449Z,75596.72
2022-09-21T23:54:23.703Z,75598.72
